createdAt,value
2018-01-26T14:55:37.803Z,21.73
2018-01-26T14:56:43.444Z,23.21
2018-01-26T15:14:07.680Z,28.99
2018-01-26T15:15:15.016Z,26.12
2018-01-26T15:16:21.654Z,25.69
2018-01-26T15:17:27.583Z,24.73
2018-01-26T15:18:35.221Z,24.19
2018-01-26T15:19:44.976Z,23.91
2018-01-26T15:20:52.854Z,23.73
2018-01-26T15:24:27.995Z,10.30
2018-01-26T15:25:38.581Z,8.28
2018-01-26T15:26:47.024Z,8.06
2018-01-26T15:27:52.893Z,8.16
2018-01-26T15:28:59.267Z,8.03
2018-01-26T15:30:06.701Z,8.03
2018-01-26T15:31:15.455Z,7.80
2018-01-26T15:32:23.779Z,7.89
2018-01-26T15:33:32.142Z,7.98
2018-01-26T15:34:43.088Z,7.93
2018-01-26T15:35:52.201Z,7.89
2018-01-26T15:36:59.892Z,7.84
2018-01-26T15:38:06.906Z,7.74
2018-01-26T15:39:14.459Z,7.76
2018-01-26T15:40:19.828Z,7.73
2018-01-26T15:41:25.876Z,7.68
2018-01-26T15:42:32.596Z,7.64
2018-01-26T15:43:40.136Z,7.66
2018-01-26T15:44:49.211Z,7.60
2018-01-26T15:45:57.269Z,7.66
2018-01-26T15:47:05.235Z,7.72
2018-01-26T15:48:13.793Z,7.60
2018-01-26T15:49:22.389Z,7.66
2018-01-26T15:50:30.994Z,7.51
2018-01-26T15:51:41.053Z,7.43
2018-01-26T15:52:46.949Z,7.49
2018-01-26T15:53:53.352Z,7.53
2018-01-26T15:55:01.589Z,7.57
2018-01-26T15:56:07.808Z,7.52
2018-01-26T15:57:14.851Z,7.60
2018-01-26T15:58:23.267Z,7.58
2018-01-26T15:59:29.921Z,7.61
2018-01-26T16:00:36.074Z,7.72
2018-01-26T16:01:43.531Z,7.68
2018-01-26T16:02:49.200Z,7.60
2018-01-26T16:03:55.161Z,7.69
2018-01-26T16:05:00.256Z,7.70
2018-01-26T16:06:05.665Z,7.70
2018-01-26T16:07:11.263Z,7.76
2018-01-26T16:08:17.083Z,7.72
2018-01-26T16:09:22.453Z,7.62
2018-01-26T16:10:27.594Z,7.65
2018-01-26T16:11:33.553Z,7.66
2018-01-26T16:12:40.055Z,7.67
2018-01-26T16:13:47.095Z,7.66
2018-01-26T16:14:53.620Z,7.67
2018-01-26T16:16:03.212Z,7.67
2018-01-26T16:17:11.172Z,7.64
2018-01-26T16:18:20.449Z,7.64
2018-01-26T16:19:28.761Z,7.70
2018-01-26T16:20:40.143Z,7.71
2018-01-26T16:21:52.531Z,7.71
2018-01-26T16:22:59.367Z,7.70
2018-01-26T16:24:04.525Z,7.69
2018-01-26T16:25:11.910Z,7.71
2018-01-26T16:26:18.347Z,7.63
2018-01-26T16:27:24.430Z,7.65
2018-01-26T16:28:30.547Z,7.69
2018-01-26T16:29:35.781Z,7.68
2018-01-26T16:35:18.113Z,7.77
2018-01-26T16:36:23.929Z,7.64
2018-01-26T16:37:29.992Z,7.50
2018-01-26T16:38:35.565Z,7.33
2018-01-26T16:39:40.876Z,7.29
2018-01-26T16:40:46.689Z,7.28
2018-01-26T16:41:52.944Z,7.29
2018-01-26T16:42:59.817Z,7.30
2018-01-26T16:44:05.900Z,7.30
2018-01-26T16:45:12.437Z,7.33
2018-01-26T16:46:23.596Z,7.33
2018-01-26T16:47:33.331Z,7.32
2018-01-26T16:48:39.344Z,7.27
2018-01-26T16:49:45.889Z,7.28
2018-01-26T16:50:51.508Z,7.31
2018-01-26T16:51:58.872Z,7.30
2018-01-26T16:53:04.624Z,7.27
2018-01-26T16:54:10.813Z,7.16
2018-01-26T16:55:17.577Z,7.05
2018-01-26T16:56:23.389Z,6.95
2018-01-26T16:57:28.799Z,6.94
2018-01-26T16:58:33.956Z,6.96
2018-01-26T16:59:39.642Z,6.96
2018-01-26T17:00:44.655Z,6.94
2018-01-26T17:01:51.036Z,6.90
2018-01-26T17:02:56.633Z,6.94
2018-01-26T17:04:01.890Z,6.95
2018-01-26T17:05:07.189Z,6.95
2018-01-26T17:06:12.643Z,6.92
2018-01-26T17:07:18.164Z,6.90
2018-01-26T17:08:24.982Z,6.87
2018-01-26T17:09:30.945Z,6.81
2018-01-26T17:10:36.304Z,6.84
2018-01-26T17:11:42.490Z,6.86
2018-01-26T17:12:48.648Z,6.88
2018-01-26T17:13:54.915Z,6.87
2018-01-26T17:15:01.019Z,6.86
2018-01-26T17:16:57.314Z,11.50
2018-01-26T17:18:03.048Z,8.80
2018-01-26T17:19:11.497Z,7.61
2018-01-26T17:20:19.718Z,7.07
2018-01-26T17:21:28.400Z,6.80
2018-01-26T17:22:35.900Z,6.70
2018-01-26T17:23:45.472Z,6.64
2018-01-26T17:24:53.023Z,6.63
2018-01-26T17:26:01.036Z,6.59
2018-01-26T17:27:07.640Z,6.57
2018-01-26T17:28:14.923Z,6.51
2018-01-26T17:29:21.258Z,6.52
2018-01-26T17:30:27.306Z,6.41
2018-01-26T17:31:34.948Z,6.27
2018-01-26T17:32:46.237Z,6.28
2018-01-26T17:33:56.977Z,6.31
2018-01-26T17:35:08.754Z,6.37
2018-01-26T17:36:16.450Z,6.30
2018-01-26T17:37:24.998Z,6.22
2018-01-26T17:38:35.343Z,6.04
2018-01-26T17:39:44.598Z,5.77
2018-01-26T17:40:54.866Z,5.68
2018-01-26T17:42:08.865Z,5.68
2018-01-26T17:43:17.373Z,5.58
2018-01-26T17:44:26.057Z,5.59
2018-01-26T17:45:35.057Z,5.60
2018-01-26T17:46:48.687Z,5.66
2018-01-26T17:47:59.983Z,5.71
2018-01-26T17:49:11.318Z,5.78
2018-01-26T17:50:22.723Z,5.75
2018-01-26T17:51:37.365Z,5.67
2018-01-26T17:52:50.922Z,5.64
2018-01-26T17:54:01.671Z,5.57
2018-01-26T17:55:10.557Z,5.58
2018-01-26T17:56:20.496Z,5.59
2018-01-26T17:57:28.434Z,5.54
2018-01-26T17:58:36.823Z,5.49
2018-01-26T17:59:44.946Z,5.44
2018-01-26T18:00:54.008Z,5.38
2018-01-26T18:02:02.244Z,5.23
2018-01-26T18:03:16.682Z,5.22
2018-01-26T18:04:24.315Z,5.14
2018-01-26T18:05:31.950Z,5.17
2018-01-26T18:06:37.950Z,5.06
2018-01-26T18:07:46.252Z,5.07
2018-01-26T18:08:52.194Z,5.04
2018-01-26T18:09:59.586Z,4.91
2018-01-26T18:11:06.870Z,4.99
2018-01-26T18:12:16.202Z,-146.64
2018-01-26T18:13:24.548Z,-146.64
2018-01-26T18:14:32.492Z,-146.64
2018-01-26T18:15:40.794Z,-146.64
2018-01-26T18:16:50.180Z,-146.64
2018-01-26T18:18:03.624Z,-146.64
2018-01-26T18:19:15.452Z,-146.64
2018-01-26T18:20:25.643Z,-146.64
2018-01-26T18:21:35.345Z,-146.64
2018-01-26T18:22:48.279Z,-146.64
2018-01-26T18:23:58.016Z,-146.64
2018-01-26T18:25:07.559Z,-146.64
2018-01-26T18:26:16.839Z,-146.64
2018-01-26T18:27:28.199Z,-146.64
2018-01-26T18:28:38.825Z,-146.64
2018-01-26T18:29:52.152Z,-146.64
2018-01-26T18:31:04.001Z,-146.64
2018-01-26T18:32:14.355Z,-146.64
2018-01-26T18:33:26.455Z,-146.64
2018-01-26T18:34:39.897Z,-146.64
2018-01-26T18:35:51.051Z,-146.64
2018-01-26T18:37:03.222Z,-146.64
2018-01-26T20:14:42.189Z,27.60
